NCAR-RAP Real-Time Weather Data

Output produced by METARs form (08 May 2021  00:56 UTC)
found at http://weather.rap.ucar.edu/surface/
 
KRDU 080051Z 00000KT 10SM FEW100 11/10 A2994 RMK AO2 SLP137 T01110100
KRDU 072351Z 00000KT 10SM FEW070 FEW090 FEW100 14/09 A2992 RMK AO2 SLP129 60001 T01390094 10167 20133 53012
KRDU 072251Z 05006KT 10SM FEW050 BKN085 BKN120 BKN250 15/10 A2989 RMK AO2 RAE2157 TSB2157E12 SLP122 P0000 T01500100
KRDU 072212Z 02006KT 10SM FEW015 SCT050 SCT070 SCT250 16/10 A2989 RMK AO2 RAE2157 TSB2157E12 P0000 T01610100
KRDU 072157Z VRB03KT 10SM TS FEW009 BKN050CB BKN070 BKN250 16/11 A2989 RMK AO2 RAE57 TSB57 FRQ LTGICCG NE TS NE MOV SE P0000 T01610106
KRDU 072151Z 35005KT 10SM -RA FEW015 BKN050CB BKN070 BKN250 15/09 A2989 RMK AO2 RAE00B40 SLP120 CB N-NE MOV SE P0000 T01500094
KRDU 072051Z 28003KT 10SM -RA FEW015 BKN070 BKN085 BKN250 15/09 A2988 RMK AO2 RAB48 SLP117 P0000 60001 T01500089 58005
KRDU 071951Z 04006KT 10SM FEW015 SCT044 SCT065 BKN250 14/11 A2989 RMK AO2 RAE48 SLP119 P0001 T01440111
KRDU 071851Z 34004G14KT 8SM -RA SCT025 BKN050 BKN070 OVC250 13/11 A2991 RMK AO2 RAB01 SLP126 P0000 T01330106
KRDU 071751Z VRB04KT 10SM SCT035 BKN055 BKN080 BKN250 16/07 A2990 RMK AO2 SLP123 60012 T01610072 10178 20111 58010
KRDU 071651Z VRB04KT 10SM SCT032 SCT085 BKN150 BKN250 17/09 A2990 RMK AO2 SLP124 T01670089
KRDU 071551Z 17007KT 10SM SCT020 SCT065 BKN090 BKN160 15/09 A2992 RMK AO2 SLP131 T01500094
KRDU 071451Z 00000KT 10SM FEW018 BKN065 BKN080 BKN160 BKN250 13/10 A2993 RMK AO2 RAE05 SLP133 P0000 60012 T01280100 53004
KRDU 071351Z 13011G17KT 10SM -RA FEW025 SCT060 BKN080 BKN130 BKN250 12/09 A2987 RMK AO2 SLP113 P0003 T01170094
KRDU 071251Z 26005KT 8SM -RA BKN055 BKN075 OVC120 11/11 A2993 RMK AO2 SLP133 P0009 T01110106
KRDU 071151Z 25003KT 4SM RA BR FEW030 BKN050 OVC070 11/11 A2991 RMK AO2 SLP128 P0018 60020 70020 T01110106 10133 20083 53014
KRDU 071051Z 31004KT 5SM -RA BR FEW030 BKN055 BKN075 BKN140 OVC230 11/10 A2989 RMK AO2 RAB22 SLP121 P0002 T01060100
KRDU 070951Z 00000KT 10SM FEW070 SCT090 BKN140 BKN230 11/09 A2989 RMK AO2 SLP119 T01060094